General Aviation Weather

Text Reports

Enter one or more of the following location identifiers separated by a space:

Zip Code, Four-Character ICAO or Three-Character IATA airport codes.

METAR - Aviation Routine Weather Report
KEWK - Newton, Kansas
Updated at 4:56 PM GMT on July 28, 2016 (11:56 AM CDT):
METAR KEWK 281656Z AUTO 08007KT 10SM CLR 29/23 A3002 RMK AO2 SLP147 T02890228
TAF - Terminal Area Forecast
KEWK - Newton, Kansas
Updated at 4:56 PM GMT on July 28, 2016 (11:56 AM CDT):
No TAF is currently available for this location.
Decoded:
No decoded TAF is available.
PIREP - Pilot Weather Report
KEWK - Newton, Kansas
Updated at 4:56 PM GMT on July 28, 2016 (11:56 AM CDT):
No PIREP is currently available for this location.
AIRMET - Airmens Meteorological Information
KEWK - Newton, Kansas
Updated at 4:56 PM GMT on July 28, 2016 (11:56 AM CDT):
No AIRMET is currently available for this location.
SIGMET - Significant Meteorological Information
KEWK - Newton, Kansas
Updated at 4:56 PM GMT on July 28, 2016 (11:56 AM CDT):
No SIGMET is currently available for this location.
NOTAM - Notice to Airmen
KEWK - Newton, Kansas
Updated at 4:56 PM GMT on July 28, 2016 (11:56 AM CDT):
No NOTAM is currently available for this location.
Forecast Area
KEWK - Newton, Kansas
Updated at 4:56 PM GMT on July 28, 2016 (11:56 AM CDT):
No NOTAM is currently available for this location.
Aviation Weather Maps